Time;durP1;ratioP1;P1;durP2;ratioP2;P2;SDS_P1;SDS_P2;PMS_P1;PMS_P2;Temp;Humidity;BMP_temperature;BMP_pressure;BME280_temperature;BME280_humidity;BME280_pressure;Samples;Min_cycle;Max_cycle;Signal;HPM_P1;HPM_P2
2021/09/06 00:02:25;;;;;;;12.43;4.97;;;13.90;99.90;;;;;;4912155;29;20088;-75
2021/09/06 00:04:51;;;;;;;12.15;5.85;;;13.80;99.90;;;;;;4912441;29;20032;-75
2021/09/06 00:07:17;;;;;;;16.92;6.55;;;13.80;99.90;;;;;;4912408;29;20111;-76
2021/09/06 00:09:47;;;;;;;12.45;5.80;;;13.80;99.90;;;;;;4912275;29;20032;-76
2021/09/06 00:12:12;;;;;;;17.17;6.85;;;13.70;99.90;;;;;;4911934;29;20043;-75
2021/09/06 00:14:38;;;;;;;15.52;6.60;;;13.70;99.90;;;;;;4928854;29;20036;-77
2021/09/06 00:17:04;;;;;;;12.18;5.80;;;13.60;99.90;;;;;;4912186;29;20028;-75
2021/09/06 00:19:29;;;;;;;19.55;6.82;;;13.60;99.90;;;;;;4912268;29;20068;-76
2021/09/06 00:21:55;;;;;;;10.55;5.70;;;13.60;99.90;;;;;;4911939;29;20088;-75
2021/09/06 00:24:20;;;;;;;10.48;5.20;;;13.50;99.90;;;;;;4929340;29;20055;-76
2021/09/06 00:26:47;;;;;;;12.95;6.85;;;13.50;99.90;;;;;;4912096;29;20024;-75
2021/09/06 00:29:12;;;;;;;11.55;5.65;;;13.40;99.90;;;;;;4928729;29;20028;-74
2021/09/06 00:31:38;;;;;;;18.98;6.38;;;13.40;99.90;;;;;;4929290;29;20588;-75
2021/09/06 00:34:03;;;;;;;11.82;6.18;;;13.40;99.90;;;;;;4929145;29;20024;-75
2021/09/06 00:36:29;;;;;;;15.43;6.60;;;13.40;99.90;;;;;;4911643;29;20024;-73
2021/09/06 00:38:55;;;;;;;20.70;7.05;;;13.30;99.90;;;;;;4928905;29;20040;-75
2021/09/06 00:41:23;;;;;;;13.80;6.55;;;13.40;99.90;;;;;;4911754;29;20036;-74
2021/09/06 00:43:51;;;;;;;11.57;5.90;;;13.40;99.90;;;;;;4928771;29;20032;-76
2021/09/06 00:46:16;;;;;;;18.10;7.68;;;13.30;99.90;;;;;;4912063;29;20055;-77
2021/09/06 00:48:42;;;;;;;13.02;6.63;;;13.30;99.90;;;;;;4911753;29;20032;-76
2021/09/06 00:51:08;;;;;;;15.50;6.38;;;13.30;99.90;;;;;;4928578;29;20031;-77
2021/09/06 00:53:33;;;;;;;12.45;6.03;;;13.30;99.90;;;;;;4928766;29;20107;-75
2021/09/06 00:55:59;;;;;;;22.25;7.20;;;13.20;99.90;;;;;;4928557;29;20064;-75
2021/09/06 00:58:27;;;;;;;15.43;6.13;;;13.20;99.90;;;;;;4911346;29;20036;-75
2021/09/06 01:00:53;;;;;;;26.65;7.32;;;13.20;99.90;;;;;;4928495;29;20048;-76
2021/09/06 01:03:19;;;;;;;20.40;6.85;;;13.10;99.90;;;;;;4911030;29;20029;-76
2021/09/06 01:05:44;;;;;;;14.32;6.90;;;13.20;99.90;;;;;;4928412;29;20068;-77
2021/09/06 01:08:10;;;;;;;14.05;6.53;;;13.20;99.90;;;;;;4911554;29;20028;-76
2021/09/06 01:10:36;;;;;;;13.60;5.80;;;13.10;99.90;;;;;;4928286;29;20028;-76
2021/09/06 01:13:01;;;;;;;14.75;6.90;;;13.10;99.90;;;;;;4928254;29;20055;-75
2021/09/06 01:15:27;;;;;;;13.35;6.38;;;13.10;99.90;;;;;;4928529;29;20501;-77
2021/09/06 01:17:53;;;;;;;15.98;7.00;;;13.10;99.90;;;;;;4911402;29;20032;-76
2021/09/06 01:20:18;;;;;;;13.40;5.85;;;13.00;99.90;;;;;;4928335;29;20465;-75
2021/09/06 01:22:44;;;;;;;14.85;6.50;;;13.00;99.90;;;;;;4911437;29;20036;-75
2021/09/06 01:25:14;;;;;;;14.75;6.32;;;13.00;99.90;;;;;;4916843;29;20080;-75
2021/09/06 01:27:39;;;;;;;22.95;6.82;;;13.10;99.90;;;;;;4909167;29;20037;-76
2021/09/06 01:30:06;;;;;;;14.80;5.95;;;13.00;99.90;;;;;;4892459;29;20050;-76
2021/09/06 01:32:32;;;;;;;16.00;6.88;;;12.90;99.90;;;;;;4908948;29;20088;-74
2021/09/06 01:34:57;;;;;;;15.68;6.70;;;12.90;99.90;;;;;;4892408;29;20036;-76
2021/09/06 01:37:23;;;;;;;16.77;6.97;;;12.90;99.90;;;;;;4909480;29;20028;-76
2021/09/06 01:39:49;;;;;;;19.95;6.85;;;12.90;99.90;;;;;;4892300;29;20033;-76
2021/09/06 01:42:15;;;;;;;14.75;7.00;;;12.90;99.90;;;;;;4892099;29;20188;-76
2021/09/06 01:44:41;;;;;;;14.48;7.30;;;12.80;99.90;;;;;;4909324;29;20024;-76
2021/09/06 01:47:06;;;;;;;15.02;5.90;;;12.80;99.90;;;;;;4891886;29;20032;-76
2021/09/06 01:49:32;;;;;;;15.35;6.63;;;12.80;99.90;;;;;;4908921;29;20429;-75
2021/09/06 01:51:57;;;;;;;14.43;7.15;;;12.80;99.90;;;;;;4909064;29;20028;-74
2021/09/06 01:54:23;;;;;;;15.50;6.40;;;12.70;99.90;;;;;;4892183;29;20032;-76
2021/09/06 01:56:50;;;;;;;12.57;6.32;;;12.70;99.90;;;;;;4909066;29;20037;-76
2021/09/06 01:59:15;;;;;;;12.57;5.88;;;12.60;99.90;;;;;;4909213;29;20045;-75
2021/09/06 02:01:41;;;;;;;12.90;6.15;;;12.50;99.90;;;;;;4908409;29;20061;-75
2021/09/06 02:04:06;;;;;;;12.75;6.22;;;12.60;99.90;;;;;;4909047;29;20187;-75
2021/09/06 02:06:32;;;;;;;11.75;6.28;;;12.50;99.90;;;;;;4892163;29;20052;-77
2021/09/06 02:08:57;;;;;;;16.08;6.45;;;12.50;99.90;;;;;;4908524;29;20068;-77
2021/09/06 02:11:23;;;;;;;15.77;6.78;;;12.50;99.90;;;;;;4892170;29;20104;-74
2021/09/06 02:13:49;;;;;;;15.07;6.07;;;12.50;99.90;;;;;;4892447;29;20502;-75
2021/09/06 02:16:15;;;;;;;14.52;6.78;;;12.50;99.90;;;;;;4892284;29;20085;-76
2021/09/06 02:18:41;;;;;;;12.07;5.95;;;12.50;99.90;;;;;;4892553;29;20043;-76
2021/09/06 02:21:06;;;;;;;13.70;6.38;;;12.40;99.90;;;;;;4893951;29;20029;-77
2021/09/06 02:23:32;;;;;;;16.33;6.22;;;12.40;99.90;;;;;;4891940;29;20029;-74
2021/09/06 02:25:58;;;;;;;11.63;4.90;;;12.40;99.90;;;;;;4893753;29;20032;-75
2021/09/06 02:28:24;;;;;;;14.57;6.25;;;12.30;99.90;;;;;;4892181;29;20044;-77
2021/09/06 02:30:50;;;;;;;15.60;6.32;;;12.30;99.90;;;;;;4893434;29;20060;-77
2021/09/06 02:33:15;;;;;;;10.95;5.30;;;12.30;99.90;;;;;;4892474;29;20037;-74
2021/09/06 02:35:41;;;;;;;17.17;6.22;;;12.30;99.90;;;;;;4892066;29;20059;-77
2021/09/06 02:38:07;;;;;;;13.82;6.05;;;12.20;99.90;;;;;;4893284;29;20502;-77
2021/09/06 02:40:32;;;;;;;17.67;7.03;;;12.20;99.90;;;;;;4893483;29;20037;-75
2021/09/06 02:42:58;;;;;;;18.33;6.50;;;12.20;99.90;;;;;;4891550;29;20029;-79
2021/09/06 02:45:24;;;;;;;15.90;5.88;;;12.10;99.90;;;;;;4891945;29;20033;-78
2021/09/06 02:47:49;;;;;;;10.60;4.90;;;12.00;99.90;;;;;;4892205;29;20025;-77
2021/09/06 02:50:16;;;;;;;18.50;7.22;;;12.10;99.90;;;;;;4891444;29;20072;-74
2021/09/06 02:52:42;;;;;;;15.35;6.43;;;12.10;99.90;;;;;;4893004;29;20576;-75
2021/09/06 02:55:08;;;;;;;14.23;6.00;;;12.10;99.90;;;;;;4893368;29;20039;-75
2021/09/06 02:57:34;;;;;;;14.57;6.35;;;12.10;99.90;;;;;;4891671;29;20029;-76
2021/09/06 03:00:00;;;;;;;13.25;5.95;;;12.00;99.90;;;;;;4893069;29;20029;-76
2021/09/06 03:02:26;;;;;;;19.00;7.38;;;12.00;99.90;;;;;;4891916;29;20025;-77
2021/09/06 03:04:52;;;;;;;14.02;6.05;;;12.00;99.90;;;;;;4891749;29;20048;-74
2021/09/06 03:07:17;;;;;;;18.65;6.90;;;12.00;99.90;;;;;;4891889;29;20081;-75
2021/09/06 03:09:43;;;;;;;16.45;5.95;;;12.00;99.90;;;;;;4891461;29;20049;-76
2021/09/06 03:12:09;;;;;;;18.00;6.65;;;12.00;99.90;;;;;;4890919;29;20029;-76
2021/09/06 03:14:34;;;;;;;6.95;3.67;;;12.00;99.90;;;;;;4891449;29;20077;-75
2021/09/06 03:17:00;;;;;;;8.95;4.13;;;12.00;99.90;;;;;;4892658;29;20064;-77
2021/09/06 03:19:26;;;;;;;11.40;4.30;;;11.90;99.90;;;;;;4891017;29;20053;-77
2021/09/06 03:21:51;;;;;;;9.85;3.30;;;11.90;99.90;;;;;;4892997;29;20032;-77
2021/09/06 03:24:17;;;;;;;8.10;3.50;;;11.80;99.90;;;;;;4891260;29;20025;-75
2021/09/06 03:26:43;;;;;;;7.25;3.70;;;11.80;99.90;;;;;;4892596;29;20386;-76
2021/09/06 03:29:08;;;;;;;12.80;4.50;;;11.70;99.90;;;;;;4892345;29;20049;-76
2021/09/06 03:31:34;;;;;;;9.23;3.70;;;11.70;99.90;;;;;;4892547;29;20040;-77
2021/09/06 03:34:00;;;;;;;6.65;3.08;;;11.60;99.90;;;;;;4890870;29;20029;-75
2021/09/06 03:36:26;;;;;;;13.23;3.03;;;11.60;99.90;;;;;;4892494;29;20033;-77
2021/09/06 03:38:55;;;;;;;5.60;2.80;;;11.60;99.90;;;;;;4891268;29;20538;-77
2021/09/06 03:41:21;;;;;;;3.70;2.28;;;11.60;99.90;;;;;;4892431;29;20029;-77
2021/09/06 03:43:47;;;;;;;6.47;2.63;;;11.50;99.90;;;;;;4892528;29;20040;-76
2021/09/06 03:46:12;;;;;;;7.50;3.60;;;11.50;99.90;;;;;;4890762;29;20025;-77
2021/09/06 03:48:38;;;;;;;7.63;3.65;;;11.40;99.90;;;;;;4892193;29;20048;-75
2021/09/06 03:51:04;;;;;;;10.75;4.10;;;11.40;99.90;;;;;;4890661;29;20053;-74
2021/09/06 03:53:30;;;;;;;8.30;4.10;;;11.30;99.90;;;;;;4890646;29;20050;-76
2021/09/06 03:55:55;;;;;;;11.45;4.45;;;11.30;99.90;;;;;;4892092;29;20021;-77
2021/09/06 03:58:21;;;;;;;12.35;5.38;;;11.30;99.90;;;;;;4892015;29;20497;-75
2021/09/06 04:00:47;;;;;;;8.10;4.80;;;11.30;99.90;;;;;;4891820;29;20118;-77
2021/09/06 04:03:13;;;;;;;18.33;6.60;;;11.30;99.90;;;;;;4890223;29;20462;-75
2021/09/06 04:05:39;;;;;;;12.40;5.32;;;11.30;99.90;;;;;;4892073;29;20037;-75
2021/09/06 04:08:05;;;;;;;21.48;7.32;;;11.30;99.90;;;;;;4891573;29;20451;-77
2021/09/06 04:10:31;;;;;;;16.67;7.15;;;11.20;99.90;;;;;;4891779;29;20037;-75
2021/09/06 04:12:57;;;;;;;12.95;6.22;;;11.30;99.90;;;;;;4897650;29;20109;-78
2021/09/06 04:15:23;;;;;;;25.52;7.13;;;11.30;99.90;;;;;;4910135;29;20107;-75
2021/09/06 04:17:49;;;;;;;16.27;6.63;;;11.20;99.90;;;;;;4910586;29;20035;-75
2021/09/06 04:20:14;;;;;;;16.02;7.22;;;11.20;99.90;;;;;;4893343;29;20063;-77
2021/09/06 04:22:40;;;;;;;18.65;7.03;;;11.20;99.90;;;;;;4909640;29;20038;-76
2021/09/06 04:25:07;;;;;;;15.73;7.38;;;11.20;99.90;;;;;;4910305;29;20060;-75
2021/09/06 04:27:33;;;;;;;16.70;6.68;;;11.30;99.90;;;;;;4893169;29;20582;-76
2021/09/06 04:29:59;;;;;;;23.20;7.55;;;11.20;99.90;;;;;;4909827;29;20059;-77
2021/09/06 04:32:24;;;;;;;16.08;5.75;;;11.20;99.90;;;;;;4893458;29;20493;-78
2021/09/06 04:34:50;;;;;;;15.07;6.53;;;11.20;99.90;;;;;;4892799;29;20025;-77
2021/09/06 04:37:16;;;;;;;15.05;6.97;;;11.20;99.90;;;;;;4892897;29;20482;-77
2021/09/06 04:39:42;;;;;;;14.35;6.70;;;11.20;99.90;;;;;;4910060;29;20053;-77
2021/09/06 04:42:08;;;;;;;13.98;6.82;;;11.20;99.90;;;;;;4892817;29;20033;-78
2021/09/06 04:44:33;;;;;;;23.52;7.93;;;11.20;99.90;;;;;;4892943;29;20028;-78
2021/09/06 04:46:59;;;;;;;56.63;8.05;;;11.20;99.90;;;;;;4893126;29;20029;-76
2021/09/06 04:49:25;;;;;;;14.45;6.47;;;11.20;99.90;;;;;;4892726;29;20104;-77
2021/09/06 04:51:50;;;;;;;14.63;6.55;;;11.20;99.90;;;;;;4909956;29;20024;-77
2021/09/06 04:54:18;;;;;;;11.73;5.65;;;11.20;99.90;;;;;;4910054;29;20104;-79
2021/09/06 04:56:44;;;;;;;10.75;5.57;;;11.20;99.90;;;;;;4892556;29;20032;-78
2021/09/06 04:59:10;;;;;;;16.20;7.28;;;11.20;99.90;;;;;;4909549;29;20033;-78
2021/09/06 05:01:36;;;;;;;10.15;6.07;;;11.20;99.90;;;;;;4909868;29;20036;-78
2021/09/06 05:04:03;;;;;;;14.60;6.22;;;11.20;99.90;;;;;;4892658;29;20076;-79
2021/09/06 05:06:29;;;;;;;12.68;6.38;;;11.10;99.90;;;;;;4892795;29;20051;-77
2021/09/06 05:08:57;;;;;;;16.02;6.22;;;11.20;99.90;;;;;;4893065;29;20483;-77
2021/09/06 05:11:22;;;;;;;13.85;5.93;;;11.20;99.90;;;;;;4892309;29;20036;-77
2021/09/06 05:13:48;;;;;;;11.70;5.97;;;11.20;99.90;;;;;;4909292;29;20053;-75
2021/09/06 05:16:14;;;;;;;11.27;5.28;;;11.20;99.90;;;;;;4910023;29;20040;-78
2021/09/06 05:18:40;;;;;;;18.52;5.97;;;11.20;99.90;;;;;;4892364;29;20071;-78
2021/09/06 05:21:05;;;;;;;13.35;5.95;;;11.20;99.90;;;;;;4915049;29;20048;-76
2021/09/06 05:23:31;;;;;;;13.75;5.82;;;11.20;99.90;;;;;;4900706;29;20098;-76
2021/09/06 05:25:57;;;;;;;16.27;6.15;;;11.20;99.90;;;;;;4917217;29;20031;-76
2021/09/06 05:28:22;;;;;;;18.67;6.38;;;11.20;99.90;;;;;;4914999;29;20037;-76
2021/09/06 05:30:48;;;;;;;12.32;5.72;;;11.20;99.90;;;;;;4912064;29;20060;-76
2021/09/06 05:33:14;;;;;;;67.85;8.38;;;11.20;99.90;;;;;;4920535;29;20028;-76
2021/09/06 05:35:40;;;;;;;49.95;8.18;;;11.30;99.90;;;;;;4925807;29;20087;-76
2021/09/06 05:38:05;;;;;;;20.50;6.38;;;11.30;99.90;;;;;;4909194;29;20393;-76
2021/09/06 05:40:31;;;;;;;51.10;6.43;;;11.30;99.90;;;;;;4927876;29;20032;-76
2021/09/06 05:42:57;;;;;;;19.55;5.82;;;11.40;99.90;;;;;;4919721;29;20035;-77
2021/09/06 05:45:23;;;;;;;20.27;7.20;;;11.40;99.90;;;;;;4912559;29;20060;-76
2021/09/06 05:47:49;;;;;;;19.75;6.68;;;11.40;99.90;;;;;;4911541;29;20051;-75
2021/09/06 05:50:17;;;;;;;15.40;5.70;;;11.40;99.90;;;;;;4912668;29;20079;-75
2021/09/06 05:52:44;;;;;;;13.93;6.55;;;11.40;99.90;;;;;;4921348;29;20043;-75
2021/09/06 05:55:11;;;;;;;57.58;7.28;;;11.40;99.90;;;;;;4914070;29;20039;-75
2021/09/06 05:57:37;;;;;;;16.63;5.88;;;11.50;99.90;;;;;;4910767;29;20031;-75
2021/09/06 06:00:03;;;;;;;17.92;7.28;;;11.50;99.90;;;;;;4920345;29;20035;-75
2021/09/06 06:02:29;;;;;;;70.10;7.55;;;11.60;99.90;;;;;;4914491;29;20037;-76
2021/09/06 06:04:55;;;;;;;16.90;7.00;;;11.60;99.90;;;;;;4914610;29;20119;-75
2021/09/06 06:07:21;;;;;;;10.63;6.18;;;11.70;99.90;;;;;;4903570;29;20385;-73
2021/09/06 06:09:48;;;;;;;28.90;8.27;;;11.70;99.90;;;;;;4916583;29;20040;-73
2021/09/06 06:12:14;;;;;;;18.63;6.18;;;11.80;99.90;;;;;;4900477;29;20028;-74
2021/09/06 06:14:39;;;;;;;22.88;7.82;;;11.80;99.90;;;;;;4910272;29;20035;-73
2021/09/06 06:17:05;;;;;;;17.40;6.15;;;11.90;99.90;;;;;;4912232;29;20137;-73
2021/09/06 06:19:31;;;;;;;38.45;6.68;;;11.90;99.90;;;;;;4912492;29;20033;-73
2021/09/06 06:21:57;;;;;;;11.50;6.60;;;12.00;99.90;;;;;;4919536;29;20036;-73
2021/09/06 06:24:23;;;;;;;62.17;8.48;;;12.00;99.90;;;;;;4911190;29;20028;-73
2021/09/06 06:26:48;;;;;;;13.98;6.38;;;12.00;99.90;;;;;;4894998;29;20036;-73
2021/09/06 06:29:14;;;;;;;19.77;7.30;;;12.10;99.90;;;;;;4910555;29;20146;-74
2021/09/06 06:31:40;;;;;;;12.63;6.20;;;12.10;99.90;;;;;;4893838;29;20075;-73
2021/09/06 06:34:05;;;;;;;19.15;7.82;;;12.20;99.90;;;;;;4893611;29;20037;-73
2021/09/06 06:36:31;;;;;;;17.92;7.43;;;12.20;99.90;;;;;;4910159;29;20032;-74
2021/09/06 06:38:56;;;;;;;24.02;7.50;;;12.20;99.90;;;;;;4910711;29;20033;-74
2021/09/06 06:41:22;;;;;;;12.10;5.93;;;12.30;99.90;;;;;;4911010;29;20032;-75
2021/09/06 06:43:48;;;;;;;13.77;6.57;;;12.40;99.90;;;;;;4910751;29;20028;-75
2021/09/06 06:46:14;;;;;;;23.10;8.50;;;12.50;99.90;;;;;;4921065;29;20104;-74
2021/09/06 06:48:40;;;;;;;12.60;6.80;;;12.60;99.90;;;;;;4929277;29;20155;-75
2021/09/06 06:51:05;;;;;;;17.10;7.13;;;12.70;99.90;;;;;;4929317;29;20043;-75
2021/09/06 06:53:31;;;;;;;15.40;6.82;;;12.70;99.90;;;;;;4929079;29;20028;-75
2021/09/06 06:55:57;;;;;;;11.90;6.57;;;12.80;99.90;;;;;;4915013;29;20461;-75
2021/09/06 06:58:22;;;;;;;14.57;6.22;;;12.80;99.90;;;;;;4909527;29;20040;-74
2021/09/06 07:00:48;;;;;;;13.43;6.15;;;12.90;99.90;;;;;;4894024;29;20037;-75
2021/09/06 07:03:13;;;;;;;10.85;5.18;;;13.00;99.90;;;;;;4909658;29;20044;-75
2021/09/06 07:05:39;;;;;;;15.40;7.50;;;13.00;99.90;;;;;;4918046;29;20037;-76
2021/09/06 07:08:05;;;;;;;12.60;6.32;;;13.20;99.90;;;;;;4907335;29;20056;-75
2021/09/06 07:10:30;;;;;;;14.93;6.90;;;13.20;99.90;;;;;;4928513;29;20721;-75
2021/09/06 07:12:56;;;;;;;20.52;8.25;;;13.30;99.90;;;;;;4928251;29;20054;-76
2021/09/06 07:15:22;;;;;;;20.50;8.13;;;13.40;99.90;;;;;;4919336;29;20063;-76
2021/09/06 07:17:47;;;;;;;13.13;6.90;;;13.50;99.90;;;;;;4925630;29;20039;-76
2021/09/06 07:20:13;;;;;;;19.42;9.07;;;13.60;99.90;;;;;;4911622;29;20032;-75
2021/09/06 07:22:38;;;;;;;19.83;7.93;;;13.70;99.90;;;;;;4928628;29;20064;-76
2021/09/06 07:25:04;;;;;;;18.17;8.13;;;13.80;99.90;;;;;;4916061;29;20032;-75
2021/09/06 07:27:30;;;;;;;19.55;8.77;;;13.90;99.90;;;;;;4895910;29;20096;-75
2021/09/06 07:29:56;;;;;;;23.00;9.38;;;14.00;99.90;;;;;;4918067;29;20084;-76
2021/09/06 07:32:22;;;;;;;24.52;9.93;;;14.10;99.90;;;;;;4909285;29;20104;-76
2021/09/06 07:34:47;;;;;;;17.00;8.35;;;14.30;99.90;;;;;;4909875;29;20029;-75
2021/09/06 07:37:13;;;;;;;24.75;9.15;;;14.30;99.90;;;;;;4909604;29;20055;-75
2021/09/06 07:39:38;;;;;;;28.05;9.80;;;14.50;99.90;;;;;;4892181;29;20024;-74
2021/09/06 07:42:05;;;;;;;22.50;9.23;;;14.60;99.90;;;;;;4909508;29;20025;-75
2021/09/06 07:44:31;;;;;;;23.48;8.05;;;14.70;99.90;;;;;;4909275;29;20031;-74
2021/09/06 07:46:57;;;;;;;22.83;10.18;;;14.80;99.90;;;;;;4904353;29;20040;-75
2021/09/06 07:49:23;;;;;;;28.23;10.82;;;14.90;99.90;;;;;;4893470;29;20048;-75
2021/09/06 07:51:56;;;;;;;23.42;10.02;;;14.90;99.90;;;;;;4911290;29;20029;-75
2021/09/06 07:54:24;;;;;;;29.52;10.52;;;14.90;99.90;;;;;;4916888;29;20038;-77
2021/09/06 07:56:52;;;;;;;29.50;10.20;;;14.90;99.90;;;;;;4922088;29;20028;-75
2021/09/06 07:59:20;;;;;;;18.25;9.27;;;14.90;99.90;;;;;;4913922;29;20096;-76
2021/09/06 08:01:46;;;;;;;27.83;10.27;;;14.90;99.90;;;;;;4908576;29;20029;-73
2021/09/06 08:04:12;;;;;;;19.45;9.10;;;14.80;99.90;;;;;;4914172;29;20074;-74
2021/09/06 08:06:38;;;;;;;16.90;8.48;;;14.90;99.90;;;;;;4910340;29;20063;-74
2021/09/06 08:09:04;;;;;;;20.40;9.48;;;14.80;99.90;;;;;;4910051;29;20179;-75
2021/09/06 08:11:30;;;;;;;25.67;10.00;;;15.00;99.90;;;;;;4899114;29;20040;-73
2021/09/06 08:13:57;;;;;;;22.10;10.43;;;15.10;99.90;;;;;;4916239;29;20053;-75
2021/09/06 08:16:22;;;;;;;21.50;9.05;;;15.40;99.90;;;;;;4916184;29;20036;-73
2021/09/06 08:18:48;;;;;;;17.50;8.73;;;15.60;99.90;;;;;;4910947;29;20039;-74
2021/09/06 08:21:14;;;;;;;15.77;7.45;;;15.80;99.90;;;;;;4917740;29;20036;-74
2021/09/06 08:23:40;;;;;;;20.88;8.60;;;15.90;99.90;;;;;;4909974;29;20092;-74
2021/09/06 08:26:05;;;;;;;23.05;8.70;;;16.10;99.90;;;;;;4909798;29;20055;-73
2021/09/06 08:28:31;;;;;;;29.75;9.40;;;16.10;99.90;;;;;;4909467;29;20040;-73
2021/09/06 08:30:57;;;;;;;22.67;9.20;;;16.30;99.90;;;;;;4910144;29;20024;-73
2021/09/06 08:33:23;;;;;;;26.38;10.70;;;16.40;99.90;;;;;;4914827;29;20028;-74
2021/09/06 08:35:50;;;;;;;23.65;9.23;;;16.60;99.90;;;;;;4913280;29;20036;-73
2021/09/06 08:38:18;;;;;;;16.23;8.18;;;16.70;99.90;;;;;;4909834;29;20020;-73
2021/09/06 08:40:44;;;;;;;22.15;9.05;;;16.80;99.90;;;;;;4909249;29;20497;-73
2021/09/06 08:43:09;;;;;;;25.65;9.15;;;17.10;99.90;;;;;;4911435;29;20414;-74
2021/09/06 08:45:36;;;;;;;20.50;8.35;;;17.20;99.90;;;;;;4911921;29;20144;-72
2021/09/06 08:48:04;;;;;;;21.45;7.93;;;17.30;99.90;;;;;;4911415;29;20047;-73
2021/09/06 08:50:31;;;;;;;19.27;8.15;;;17.50;99.90;;;;;;4900600;29;20445;-73
2021/09/06 08:52:57;;;;;;;21.58;8.35;;;17.60;99.90;;;;;;4913422;29;20092;-74
2021/09/06 08:55:23;;;;;;;21.20;8.55;;;17.90;99.90;;;;;;4908106;29;20396;-74
2021/09/06 08:57:48;;;;;;;22.27;8.73;;;18.00;99.90;;;;;;4917100;29;20060;-73
2021/09/06 09:00:15;;;;;;;14.75;7.50;;;18.00;99.90;;;;;;4916414;29;20032;-72
2021/09/06 09:02:41;;;;;;;21.17;8.63;;;18.30;99.90;;;;;;4915337;29;20132;-73
2021/09/06 09:05:09;;;;;;;20.52;7.55;;;18.50;99.90;;;;;;4921356;29;20024;-73
2021/09/06 09:07:37;;;;;;;19.05;7.82;;;18.70;99.90;;;;;;4899835;29;20039;-72
2021/09/06 09:10:07;;;;;;;24.88;7.88;;;18.80;99.90;;;;;;4922665;29;20073;-73
2021/09/06 09:12:32;;;;;;;24.50;7.65;;;19.00;99.90;;;;;;4912423;29;20100;-73
2021/09/06 09:15:00;;;;;;;19.55;8.25;;;19.10;99.90;;;;;;4908414;29;20036;-75
2021/09/06 09:17:26;;;;;;;24.02;6.32;;;19.30;99.90;;;;;;4908876;29;20029;-73
2021/09/06 09:19:54;;;;;;;21.80;7.10;;;19.40;99.90;;;;;;4913472;29;20028;-74
2021/09/06 09:22:30;;;;;;;13.07;6.47;;;19.40;99.90;;;;;;4927950;29;20028;-74
2021/09/06 09:25:06;;;;;;;12.32;5.38;;;19.50;99.90;;;;;;4921180;29;20040;-73
2021/09/06 09:27:32;;;;;;;12.68;5.32;;;19.60;99.90;;;;;;4902315;29;20028;-71
2021/09/06 09:29:58;;;;;;;12.98;5.13;;;19.70;99.90;;;;;;4895858;29;20044;-72
2021/09/06 09:32:24;;;;;;;11.13;5.03;;;19.70;99.90;;;;;;4908665;29;20025;-73
2021/09/06 09:34:51;;;;;;;15.23;5.00;;;19.90;99.90;;;;;;4908408;29;20056;-74
2021/09/06 09:37:24;;;;;;;12.32;5.22;;;19.90;99.90;;;;;;4921530;29;20032;-73
2021/09/06 09:39:58;;;;;;;17.75;5.97;;;19.90;99.90;;;;;;4913629;29;20112;-72
2021/09/06 09:42:24;;;;;;;8.77;4.13;;;19.90;99.90;;;;;;4917903;29;20047;-73
2021/09/06 09:44:54;;;;;;;10.27;3.92;;;19.90;99.90;;;;;;4927985;29;20032;-72
2021/09/06 09:47:23;;;;;;;9.95;4.20;;;19.90;99.90;;;;;;4925699;29;20020;-73
2021/09/06 09:49:51;;;;;;;9.93;4.60;;;19.80;99.90;;;;;;4909428;29;20520;-70
2021/09/06 09:52:19;;;;;;;10.05;5.35;;;19.80;99.90;;;;;;4921088;29;20057;-73
2021/09/06 09:54:47;;;;;;;11.68;4.85;;;19.70;99.90;;;;;;4909191;29;20036;-72
2021/09/06 09:57:14;;;;;;;10.38;4.88;;;19.70;99.90;;;;;;4909055;29;20032;-74
2021/09/06 09:59:41;;;;;;;14.88;4.88;;;19.70;99.90;;;;;;4918209;29;20099;-73
2021/09/06 10:02:11;;;;;;;9.32;4.18;;;19.80;99.90;;;;;;4928166;29;20033;-72
2021/09/06 10:05:03;;;;;;;10.40;4.68;;;19.80;99.90;;;;;;4930062;29;20048;-73
2021/09/06 10:07:33;;;;;;;12.05;4.53;;;20.00;99.90;;;;;;4926725;29;20048;-72
2021/09/06 10:10:17;;;;;;;17.63;5.15;;;20.20;99.90;;;;;;4927845;29;20040;-72
2021/09/06 10:12:49;;;;;;;8.07;4.47;;;20.40;99.90;;;;;;4910535;29;20089;-73
2021/09/06 10:15:15;;;;;;;9.57;4.82;;;20.60;99.90;;;;;;4908377;29;20029;-72
2021/09/06 10:17:49;;;;;;;13.00;4.35;;;20.90;99.90;;;;;;4908869;29;20588;-73
2021/09/06 10:20:15;;;;;;;7.65;3.83;;;21.10;99.90;;;;;;4909430;29;20343;-72
2021/09/06 10:22:42;;;;;;;9.60;4.50;;;21.10;99.90;;;;;;4913326;29;20067;-72
2021/09/06 10:25:10;;;;;;;5.85;3.05;;;21.20;99.90;;;;;;4927669;29;20031;-73
2021/09/06 10:27:49;;;;;;;9.02;3.25;;;21.20;99.90;;;;;;4910267;29;20117;-73
2021/09/06 10:30:14;;;;;;;8.27;4.47;;;21.20;99.90;;;;;;4914379;29;20048;-72
2021/09/06 10:32:44;;;;;;;7.80;3.63;;;21.20;99.90;;;;;;4909106;29;20048;-73
2021/09/06 10:35:17;;;;;;;7.10;3.28;;;21.20;99.90;;;;;;4895145;29;20397;-74
2021/09/06 10:37:46;;;;;;;7.63;3.65;;;21.20;99.90;;;;;;4922583;29;20032;-74
2021/09/06 10:40:12;;;;;;;5.90;2.97;;;21.20;99.90;;;;;;4920743;29;20036;-74
2021/09/06 10:42:41;;;;;;;7.95;3.28;;;21.30;99.90;;;;;;4915040;29;20091;-74
2021/09/06 10:45:08;;;;;;;11.73;3.80;;;21.50;99.90;;;;;;4916241;29;20059;-72
2021/09/06 10:47:39;;;;;;;6.65;2.58;;;21.70;99.90;;;;;;4896490;29;20135;-74
2021/09/06 10:50:16;;;;;;;5.80;2.83;;;21.90;99.90;;;;;;4913476;29;20059;-74
2021/09/06 10:52:44;;;;;;;4.75;2.50;;;22.00;99.90;;;;;;4930753;29;20036;-72
2021/09/06 10:55:10;;;;;;;3.78;2.55;;;21.90;99.90;;;;;;4930527;29;20038;-72
2021/09/06 10:57:41;;;;;;;6.50;2.92;;;21.90;99.90;;;;;;4919387;29;20024;-72
2021/09/06 11:00:13;;;;;;;7.00;3.50;;;21.90;99.90;;;;;;4911662;29;20032;-71
2021/09/06 11:02:39;;;;;;;8.20;3.15;;;21.90;99.90;;;;;;4911278;29;20032;-72
2021/09/06 11:05:06;;;;;;;6.70;3.15;;;21.90;99.90;;;;;;4911768;29;20036;-72
2021/09/06 11:07:32;;;;;;;8.77;3.20;;;21.90;99.90;;;;;;4911576;29;20036;-74
2021/09/06 11:10:11;;;;;;;8.88;2.80;;;21.80;99.90;;;;;;4894402;29;20056;-75
2021/09/06 11:12:39;;;;;;;5.82;3.30;;;21.80;99.90;;;;;;4911143;29;20144;-72
2021/09/06 11:15:05;;;;;;;4.82;2.95;;;21.80;99.90;;;;;;4894561;29;20036;-78
2021/09/06 11:17:31;;;;;;;4.47;2.28;;;21.90;99.90;;;;;;4914254;29;20043;-72
2021/09/06 11:19:58;;;;;;;6.32;2.20;;;22.00;99.90;;;;;;4928704;29;20032;-74
2021/09/06 11:22:30;;;;;;;4.75;2.63;;;22.00;99.90;;;;;;4911263;29;20031;-72
2021/09/06 11:25:01;;;;;;;4.45;2.08;;;22.00;99.90;;;;;;4923370;29;20032;-74
2021/09/06 11:27:29;;;;;;;6.97;2.70;;;22.10;99.90;;;;;;4917697;29;20064;-72
2021/09/06 11:29:55;;;;;;;3.72;1.85;;;22.20;99.90;;;;;;4926824;29;20036;-74
2021/09/06 11:32:21;;;;;;;7.13;2.47;;;22.30;99.90;;;;;;4918746;29;20390;-75
2021/09/06 11:34:49;;;;;;;4.88;2.25;;;22.40;99.90;;;;;;4918861;29;20043;-72
2021/09/06 11:37:16;;;;;;;4.65;2.40;;;22.40;99.90;;;;;;4914663;29;20058;-74
2021/09/06 11:39:43;;;;;;;6.20;2.55;;;22.40;99.90;;;;;;4920536;29;20142;-75
2021/09/06 11:42:10;;;;;;;7.22;2.80;;;22.50;99.90;;;;;;4928217;29;20063;-74
2021/09/06 11:44:36;;;;;;;6.10;2.42;;;22.80;99.90;;;;;;4928781;29;20039;-74
2021/09/06 11:47:02;;;;;;;5.35;2.33;;;23.00;99.90;;;;;;4919857;29;20426;-75
2021/09/06 11:49:28;;;;;;;3.88;2.30;;;23.10;99.90;;;;;;4921917;29;20117;-74
2021/09/06 11:52:04;;;;;;;5.50;2.50;;;23.10;99.90;;;;;;4910360;29;20028;-73
2021/09/06 11:54:43;;;;;;;8.15;2.42;;;23.30;99.90;;;;;;4915297;29;20071;-71
2021/09/06 11:57:22;;;;;;;4.40;2.10;;;23.40;99.90;;;;;;4899682;29;20039;-73
2021/09/06 11:59:54;;;;;;;4.18;2.13;;;23.50;99.90;;;;;;4929704;29;20032;-73
2021/09/06 12:02:22;;;;;;;3.88;1.98;;;23.70;99.90;;;;;;4926519;29;20076;-75
2021/09/06 12:04:48;;;;;;;4.45;1.85;;;23.80;99.90;;;;;;4917192;29;20047;-72
2021/09/06 12:07:18;;;;;;;4.10;1.85;;;24.00;99.90;;;;;;4910820;29;20052;-72
2021/09/06 12:09:47;;;;;;;11.35;2.30;;;24.00;99.90;;;;;;4910528;29;20044;-74
2021/09/06 12:12:31;;;;;;;4.40;2.05;;;24.10;99.90;;;;;;4927981;29;20064;-72
2021/09/06 12:14:56;;;;;;;3.87;2.13;;;24.20;99.90;;;;;;4929764;29;20067;-71
2021/09/06 12:17:34;;;;;;;4.55;2.53;;;24.30;99.90;;;;;;4929816;29;20042;-74
2021/09/06 12:20:07;;;;;;;6.70;3.22;;;24.30;99.90;;;;;;4929233;29;20048;-72
2021/09/06 12:22:34;;;;;;;8.30;2.35;;;24.20;99.90;;;;;;4929178;29;20056;-70
2021/09/06 12:25:09;;;;;;;5.50;2.45;;;24.10;99.90;;;;;;4928881;29;20091;-72
2021/09/06 12:27:35;;;;;;;3.55;1.90;;;24.00;99.90;;;;;;4928778;29;20092;-74
2021/09/06 12:30:01;;;;;;;5.97;2.53;;;24.00;99.90;;;;;;4913028;29;20050;-72
2021/09/06 12:32:28;;;;;;;4.72;2.70;;;24.10;99.90;;;;;;4909934;29;20054;-72
2021/09/06 12:34:54;;;;;;;3.95;2.38;;;24.20;99.90;;;;;;4910508;29;20021;-74
2021/09/06 12:37:24;;;;;;;6.30;2.45;;;24.40;99.90;;;;;;4910395;29;20911;-71